Time;durP1;ratioP1;P1;durP2;ratioP2;P2;SDS_P1;SDS_P2;PMS_P1;PMS_P2;Temp;Humidity;BMP_temperature;BMP_pressure;BME280_temperature;BME280_humidity;BME280_pressure;Samples;Min_cycle;Max_cycle;Signal;HPM_P1;HPM_P2
2021/12/30 00:00:23;;;;;;;18.45;9.75;;;;;;;9.24;100.00;99844.91;6016810;29;20061;-94
2021/12/30 00:03:25;;;;;;;19.85;9.65;;;;;;;9.25;100.00;99836.19;6020349;29;20136;-94
2021/12/30 00:06:29;;;;;;;19.20;9.95;;;;;;;9.37;100.00;99849.03;5990674;29;20048;-94
2021/12/30 00:09:32;;;;;;;37.63;10.35;;;;;;;9.43;100.00;99853.66;6013780;29;20099;-94
2021/12/30 00:12:34;;;;;;;19.83;9.70;;;;;;;9.49;100.00;99866.06;6010328;29;20061;-94
2021/12/30 00:15:37;;;;;;;22.00;9.45;;;;;;;9.55;100.00;99875.06;5992160;29;20129;-94
2021/12/30 00:18:39;;;;;;;23.40;9.88;;;;;;;9.64;100.00;99874.28;6008421;29;20050;-93
2021/12/30 00:21:41;;;;;;;20.95;10.07;;;;;;;9.66;100.00;99880.97;6000142;29;20045;-93
2021/12/30 00:24:43;;;;;;;23.10;10.88;;;;;;;9.61;100.00;99877.09;6005933;29;20049;-93
2021/12/30 00:27:45;;;;;;;17.70;8.60;;;;;;;9.63;100.00;99883.78;6002063;29;20665;-93
2021/12/30 00:30:49;;;;;;;19.45;9.43;;;;;;;9.65;100.00;99891.41;6004089;29;20513;-94
2021/12/30 00:33:51;;;;;;;16.58;9.05;;;;;;;9.63;100.00;99893.31;6000910;29;20057;-93
2021/12/30 00:36:53;;;;;;;17.02;8.32;;;;;;;9.67;100.00;99885.16;6004683;29;20053;-93
2021/12/30 00:39:55;;;;;;;19.98;8.70;;;;;;;9.73;100.00;99893.34;5999970;29;20034;-92
2021/12/30 00:42:59;;;;;;;22.52;9.15;;;;;;;9.73;100.00;99895.94;6000427;29;20048;-93
2021/12/30 00:46:02;;;;;;;20.92;8.75;;;;;;;9.76;100.00;99893.88;6004244;29;20046;-93
2021/12/30 00:49:04;;;;;;;19.08;9.07;;;;;;;9.76;100.00;99906.00;5977233;29;20050;-92
2021/12/30 00:52:07;;;;;;;16.60;8.75;;;;;;;9.83;100.00;99917.44;6001493;29;20073;-93
2021/12/30 00:55:09;;;;;;;16.08;8.27;;;;;;;9.77;100.00;99928.31;6002808;29;20053;-92
2021/12/30 00:58:12;;;;;;;23.60;9.27;;;;;;;9.78;100.00;99948.84;6001170;29;20049;-92
2021/12/30 01:01:13;;;;;;;15.07;8.48;;;;;;;9.78;100.00;99932.53;6001545;29;20052;-92
2021/12/30 01:04:16;;;;;;;17.67;8.52;;;;;;;9.70;100.00;99948.69;6001005;29;20073;-92
2021/12/30 01:07:21;;;;;;;16.02;8.43;;;;;;;9.69;100.00;99954.81;5999436;29;20081;-92
2021/12/30 01:10:23;;;;;;;21.55;9.15;;;;;;;9.71;100.00;99968.41;6002564;29;20085;-92
2021/12/30 01:13:27;;;;;;;16.90;8.88;;;;;;;9.68;100.00;99959.16;5998582;29;20069;-92
2021/12/30 01:16:35;;;;;;;16.13;7.57;;;;;;;9.68;100.00;99966.09;5997717;29;20085;-92
2021/12/30 01:19:43;;;;;;;19.75;8.13;;;;;;;9.71;100.00;99994.25;5994895;29;20784;-92
2021/12/30 01:22:47;;;;;;;17.48;8.00;;;;;;;9.73;100.00;99992.34;5999026;29;20042;-92
2021/12/30 01:25:49;;;;;;;16.38;7.75;;;;;;;9.72;100.00;100001.06;6000767;29;20175;-92
2021/12/30 01:28:52;;;;;;;16.33;7.85;;;;;;;9.66;100.00;100002.41;6001839;29;20045;-92
2021/12/30 01:31:56;;;;;;;17.55;7.20;;;;;;;9.72;100.00;100008.00;6006449;29;20046;-92
2021/12/30 01:35:00;;;;;;;20.40;8.02;;;;;;;9.69;100.00;99993.59;6023020;29;20037;-92
2021/12/30 01:38:02;;;;;;;20.88;8.07;;;;;;;9.73;100.00;99994.13;6003089;29;20049;-92
2021/12/30 01:41:07;;;;;;;16.17;7.20;;;;;;;9.74;100.00;99998.34;5996234;29;20050;-92
2021/12/30 01:44:09;;;;;;;18.30;8.10;;;;;;;9.69;100.00;100007.31;6001716;29;20098;-92
2021/12/30 01:47:11;;;;;;;16.60;7.78;;;;;;;9.73;100.00;100005.28;6000506;29;20052;-92
2021/12/30 01:50:13;;;;;;;15.73;7.18;;;;;;;9.70;100.00;100014.13;6004772;29;20412;-92
2021/12/30 01:53:15;;;;;;;20.05;7.35;;;;;;;9.84;100.00;100025.09;6004354;29;20063;-92
2021/12/30 01:56:31;;;;;;;12.27;6.63;;;;;;;9.72;100.00;100026.91;6006365;29;20129;-92
2021/12/30 01:59:33;;;;;;;14.43;6.97;;;;;;;9.74;100.00;100013.84;6004294;29;20057;-92
2021/12/30 02:02:35;;;;;;;19.00;7.47;;;;;;;9.75;100.00;100031.00;6006133;29;20064;-92
2021/12/30 02:05:38;;;;;;;16.00;7.00;;;;;;;9.81;100.00;100046.00;6005331;29;20125;-92
2021/12/30 02:08:40;;;;;;;17.75;6.47;;;;;;;9.84;100.00;100051.75;6005761;29;20038;-92
2021/12/30 02:11:43;;;;;;;16.10;7.00;;;;;;;9.91;100.00;100049.44;6006388;29;20053;-92
2021/12/30 02:14:45;;;;;;;17.75;7.90;;;;;;;9.90;100.00;100060.75;6003861;29;20042;-92
2021/12/30 02:17:49;;;;;;;26.65;7.93;;;;;;;9.87;100.00;100066.19;6003882;29;20041;-91
2021/12/30 02:20:56;;;;;;;21.33;8.18;;;;;;;9.81;100.00;100064.09;6004427;29;20422;-92
2021/12/30 02:23:58;;;;;;;19.30;8.68;;;;;;;9.81;100.00;100069.25;6005519;29;20133;-91
2021/12/30 02:27:01;;;;;;;20.35;8.27;;;;;;;9.87;100.00;100084.28;6002275;29;20094;-92
2021/12/30 02:30:03;;;;;;;18.15;7.28;;;;;;;9.88;100.00;100099.63;6004230;29;20045;-92
2021/12/30 02:33:06;;;;;;;18.40;7.50;;;;;;;9.85;100.00;100091.34;6005345;29;20501;-91
2021/12/30 02:36:08;;;;;;;21.55;7.53;;;;;;;9.87;100.00;100077.34;6006119;29;20073;-90
2021/12/30 02:39:12;;;;;;;15.98;7.10;;;;;;;9.87;100.00;100079.09;6005814;29;20053;-89
2021/12/30 02:42:14;;;;;;;16.60;6.35;;;;;;;9.83;100.00;100100.97;6005302;29;20054;-89
2021/12/30 02:45:16;;;;;;;17.17;5.60;;;;;;;9.79;100.00;100089.25;6003617;29;20117;-89
2021/12/30 02:48:21;;;;;;;19.20;6.07;;;;;;;9.77;100.00;100076.47;5996563;29;20045;-90
2021/12/30 02:51:24;;;;;;;17.95;6.00;;;;;;;9.79;100.00;100082.31;6004854;29;20416;-90
2021/12/30 02:54:26;;;;;;;20.13;5.65;;;;;;;9.79;100.00;100086.66;6005153;29;20053;-90
2021/12/30 02:57:28;;;;;;;15.90;5.53;;;;;;;9.79;100.00;100071.16;6004729;29;20050;-90
2021/12/30 03:00:30;;;;;;;11.25;5.38;;;;;;;9.69;100.00;100079.69;6001649;29;20412;-89
2021/12/30 03:03:32;;;;;;;14.13;5.57;;;;;;;9.63;100.00;100077.59;6001745;29;20160;-90
2021/12/30 03:06:34;;;;;;;19.08;5.38;;;;;;;9.44;100.00;100078.28;6002876;29;20053;-90
2021/12/30 03:09:37;;;;;;;15.60;5.90;;;;;;;9.22;100.00;100081.78;6003370;29;20050;-90
2021/12/30 03:12:38;;;;;;;14.38;5.40;;;;;;;9.22;100.00;100078.38;6004104;29;20049;-89
2021/12/30 03:15:41;;;;;;;19.38;6.93;;;;;;;9.13;100.00;100077.34;6004170;29;20069;-89
2021/12/30 03:18:48;;;;;;;20.52;5.90;;;;;;;9.11;100.00;100070.66;6004242;29;20042;-90
2021/12/30 03:21:49;;;;;;;22.63;6.38;;;;;;;9.01;100.00;100078.31;6003864;29;20141;-90
2021/12/30 03:24:51;;;;;;;21.42;7.35;;;;;;;9.03;100.00;100105.66;6002466;29;20046;-90
2021/12/30 03:27:53;;;;;;;19.73;6.38;;;;;;;8.94;100.00;100113.31;6003859;29;20046;-90
2021/12/30 03:31:07;;;;;;;23.35;7.75;;;;;;;8.99;100.00;100118.94;6002374;29;20072;-90
2021/12/30 03:34:10;;;;;;;22.15;6.85;;;;;;;8.98;100.00;100132.78;6003963;29;20045;-89
2021/12/30 03:37:12;;;;;;;22.23;7.60;;;;;;;8.98;100.00;100145.69;6003893;29;20118;-90
2021/12/30 03:40:16;;;;;;;24.60;6.68;;;;;;;9.08;100.00;100159.53;6001961;29;20496;-89
2021/12/30 03:43:18;;;;;;;23.60;7.03;;;;;;;9.18;100.00;100175.94;5997117;29;20046;-89
2021/12/30 03:46:21;;;;;;;30.30;7.38;;;;;;;9.38;100.00;100200.19;6000569;29;20074;-89
2021/12/30 03:49:24;;;;;;;25.85;8.38;;;;;;;9.51;100.00;100200.03;6001892;29;20045;-90
2021/12/30 03:52:30;;;;;;;23.00;6.93;;;;;;;9.52;100.00;100201.69;6003030;29;20468;-90
2021/12/30 03:55:32;;;;;;;27.75;7.80;;;;;;;9.47;100.00;100198.66;6003119;29;20463;-90
2021/12/30 03:58:36;;;;;;;21.33;6.75;;;;;;;9.47;100.00;100207.22;6002870;29;20057;-89
2021/12/30 04:01:38;;;;;;;28.92;6.75;;;;;;;9.51;100.00;100206.97;5999004;29;20064;-89
2021/12/30 04:04:40;;;;;;;26.58;6.47;;;;;;;9.53;100.00;100223.16;6003587;29;20046;-90
2021/12/30 04:07:42;;;;;;;22.85;5.95;;;;;;;9.56;100.00;100226.31;6004703;29;20053;-89
2021/12/30 04:10:44;;;;;;;18.30;5.53;;;;;;;9.53;100.00;100229.16;6004706;29;20046;-90
2021/12/30 04:13:46;;;;;;;23.98;6.72;;;;;;;9.51;100.00;100220.69;6004531;29;20543;-89
2021/12/30 04:16:48;;;;;;;23.35;6.88;;;;;;;9.47;100.00;100203.81;6002524;29;20515;-89
2021/12/30 04:19:51;;;;;;;23.20;5.45;;;;;;;9.36;100.00;100202.06;6003939;29;20102;-90
2021/12/30 04:22:52;;;;;;;21.83;5.90;;;;;;;9.27;100.00;100195.06;6004384;29;20050;-90
2021/12/30 04:25:55;;;;;;;23.48;5.32;;;;;;;9.13;100.00;100193.53;6004586;29;20519;-90
2021/12/30 04:28:57;;;;;;;27.42;6.30;;;;;;;9.09;100.00;100202.47;6003778;29;20057;-90
2021/12/30 04:31:59;;;;;;;18.55;5.32;;;;;;;9.02;100.00;100196.97;6004062;29;20066;-90
2021/12/30 04:35:01;;;;;;;25.35;5.95;;;;;;;8.89;100.00;100196.25;6002279;29;20113;-90
2021/12/30 04:38:03;;;;;;;27.98;5.55;;;;;;;8.82;100.00;100193.34;6003682;29;20103;-90
2021/12/30 04:41:05;;;;;;;25.70;5.47;;;;;;;8.81;100.00;100194.28;5983358;29;20167;-90
2021/12/30 04:44:08;;;;;;;16.60;5.68;;;;;;;8.86;100.00;100178.44;6001044;29;20057;-90
2021/12/30 04:47:10;;;;;;;21.20;6.07;;;;;;;8.77;100.00;100179.13;6003952;29;20057;-90
2021/12/30 04:50:14;;;;;;;19.63;6.15;;;;;;;8.64;100.00;100161.19;6003910;29;20098;-90
2021/12/30 04:53:18;;;;;;;21.63;6.00;;;;;;;8.68;100.00;100169.53;6002917;29;20050;-90
2021/12/30 04:56:20;;;;;;;22.30;5.07;;;;;;;8.60;100.00;100163.22;6003388;29;20057;-90
2021/12/30 04:59:22;;;;;;;21.02;6.82;;;;;;;8.64;100.00;100163.78;5991361;29;20050;-90
2021/12/30 05:02:32;;;;;;;22.75;5.85;;;;;;;8.70;100.00;100162.50;6003514;29;20046;-90
2021/12/30 05:05:43;;;;;;;20.17;5.93;;;;;;;8.62;100.00;100155.34;5991044;29;20042;-90
2021/12/30 05:08:45;;;;;;;28.00;7.03;;;;;;;8.77;100.00;100154.19;6003822;29;20049;-90
2021/12/30 05:11:47;;;;;;;32.40;6.65;;;;;;;8.74;100.00;100151.81;5992003;29;20047;-90
2021/12/30 05:14:49;;;;;;;21.15;7.05;;;;;;;8.71;100.00;100146.91;6007636;29;20057;-90
2021/12/30 05:17:54;;;;;;;28.52;8.00;;;;;;;8.66;100.00;100155.94;5995208;29;20190;-90
2021/12/30 05:20:59;;;;;;;23.23;7.30;;;;;;;8.84;100.00;100164.81;6006627;29;20054;-90
2021/12/30 05:24:01;;;;;;;26.98;7.43;;;;;;;8.90;100.00;100154.03;6002231;29;20054;-90
2021/12/30 05:27:03;;;;;;;25.00;7.57;;;;;;;8.95;100.00;100169.19;6006422;29;20054;-90
2021/12/30 05:30:07;;;;;;;27.52;8.52;;;;;;;8.96;100.00;100179.38;6007982;29;20806;-89
2021/12/30 05:33:09;;;;;;;26.90;7.72;;;;;;;9.06;100.00;100156.22;6006895;29;20052;-90
2021/12/30 05:36:11;;;;;;;24.77;8.30;;;;;;;8.90;100.00;100133.41;6008637;29;20058;-90
2021/12/30 05:39:13;;;;;;;19.70;7.60;;;;;;;8.80;100.00;100124.72;6009646;29;20057;-90
2021/12/30 05:42:15;;;;;;;20.63;7.50;;;;;;;8.72;100.00;100124.47;5994019;29;20128;-90
2021/12/30 05:45:18;;;;;;;22.08;7.60;;;;;;;8.68;100.00;100130.84;6000544;29;20425;-90
2021/12/30 05:48:20;;;;;;;23.67;7.13;;;;;;;8.64;100.00;100127.66;5990451;29;20057;-90
2021/12/30 05:51:22;;;;;;;23.80;7.90;;;;;;;8.63;100.00;100142.31;5991688;29;20053;-90
2021/12/30 05:54:24;;;;;;;20.38;7.70;;;;;;;8.50;100.00;100146.81;5978081;29;20050;-90
2021/12/30 05:57:27;;;;;;;30.27;8.48;;;;;;;8.41;100.00;100153.47;6008015;29;20050;-90
2021/12/30 06:00:31;;;;;;;25.73;9.45;;;;;;;8.40;100.00;100161.34;6009927;29;20572;-90
2021/12/30 06:03:34;;;;;;;30.88;9.43;;;;;;;8.44;100.00;100173.03;6012580;29;20055;-90
2021/12/30 06:06:35;;;;;;;23.58;7.75;;;;;;;8.46;100.00;100173.75;6011348;29;20045;-91
2021/12/30 06:09:37;;;;;;;21.00;9.05;;;;;;;8.36;100.00;100183.91;6007268;29;20054;-90
2021/12/30 06:12:42;;;;;;;26.50;8.75;;;;;;;8.62;100.00;100196.63;6006009;29;20080;-90
2021/12/30 06:15:44;;;;;;;27.85;8.52;;;;;;;8.73;100.00;100195.81;6005705;29;20050;-90
2021/12/30 06:18:46;;;;;;;27.02;9.93;;;;;;;8.79;100.00;100196.19;6007071;29;20056;-90
2021/12/30 06:21:48;;;;;;;28.80;10.95;;;;;;;9.03;100.00;100198.59;6007173;29;20042;-90
2021/12/30 06:24:50;;;;;;;28.90;9.82;;;;;;;9.18;100.00;100198.34;6006437;29;20534;-90
2021/12/30 06:27:52;;;;;;;27.65;9.70;;;;;;;9.44;100.00;100201.44;6006652;29;20050;-90
2021/12/30 06:30:54;;;;;;;26.35;10.00;;;;;;;9.51;100.00;100197.44;6007341;29;20370;-91
2021/12/30 06:33:56;;;;;;;24.60;9.82;;;;;;;9.50;100.00;100177.72;6007137;29;20045;-90
2021/12/30 06:36:58;;;;;;;30.75;9.75;;;;;;;9.52;100.00;100162.13;6007473;29;20820;-90
2021/12/30 06:40:00;;;;;;;31.00;10.73;;;;;;;9.45;100.00;100165.16;6007024;29;20046;-90
2021/12/30 06:43:03;;;;;;;32.88;10.27;;;;;;;9.42;100.00;100155.09;6005831;29;20300;-90
2021/12/30 06:46:05;;;;;;;24.48;10.00;;;;;;;9.37;100.00;100146.06;6006570;29;20049;-90
2021/12/30 06:49:09;;;;;;;22.73;10.40;;;;;;;9.37;100.00;100164.97;5979537;29;20145;-91
2021/12/30 06:52:12;;;;;;;26.80;11.00;;;;;;;9.37;100.00;100164.16;5984079;29;20137;-90
2021/12/30 06:55:14;;;;;;;26.70;10.20;;;;;;;9.33;100.00;100181.66;5998769;29;20054;-91
2021/12/30 06:58:17;;;;;;;27.80;10.00;;;;;;;9.31;100.00;100182.72;5998400;29;20047;-90
2021/12/30 07:01:19;;;;;;;27.92;10.90;;;;;;;9.29;100.00;100190.56;6006346;29;20393;-90
2021/12/30 07:04:22;;;;;;;33.78;11.68;;;;;;;9.24;100.00;100209.03;6005056;29;20061;-90
2021/12/30 07:07:25;;;;;;;33.38;11.30;;;;;;;9.21;100.00;100208.44;5994480;29;20496;-90
2021/12/30 07:10:27;;;;;;;23.67;10.75;;;;;;;9.24;100.00;100208.19;6005211;29;20046;-90
2021/12/30 07:13:29;;;;;;;26.58;10.85;;;;;;;9.33;100.00;100210.06;6005960;29;20051;-90
2021/12/30 07:16:31;;;;;;;22.80;10.95;;;;;;;9.37;100.00;100210.66;6006134;29;20527;-90
2021/12/30 07:19:33;;;;;;;26.75;11.48;;;;;;;9.44;100.00;100211.78;6004923;29;20182;-90
2021/12/30 07:22:36;;;;;;;23.48;11.40;;;;;;;9.46;100.00;100202.16;6006287;29;20057;-90
2021/12/30 07:25:55;;;;;;;25.67;12.55;;;;;;;9.48;100.00;100198.50;6005503;29;20517;-90
2021/12/30 07:28:57;;;;;;;25.05;12.05;;;;;;;9.52;100.00;100206.03;6006288;29;20478;-90
2021/12/30 07:31:59;;;;;;;26.63;12.30;;;;;;;9.57;100.00;100209.06;6005366;29;20069;-90
2021/12/30 07:35:01;;;;;;;24.50;11.95;;;;;;;9.59;100.00;100208.00;6005724;29;20216;-91
2021/12/30 07:38:04;;;;;;;24.95;11.85;;;;;;;9.61;100.00;100213.84;5991620;29;20043;-90
2021/12/30 07:41:06;;;;;;;24.30;11.45;;;;;;;9.65;100.00;100214.44;5985161;29;20367;-90
2021/12/30 07:44:09;;;;;;;24.35;11.32;;;;;;;9.62;100.00;100218.09;5995446;29;20038;-90
2021/12/30 07:47:11;;;;;;;21.65;10.80;;;;;;;9.67;100.00;100221.13;5986663;29;20132;-90
2021/12/30 07:50:13;;;;;;;21.92;10.98;;;;;;;9.68;100.00;100221.94;5995412;29;20046;-90
2021/12/30 07:53:16;;;;;;;24.70;11.38;;;;;;;9.70;100.00;100215.69;5993924;29;20046;-90
2021/12/30 07:56:18;;;;;;;26.80;11.75;;;;;;;9.68;100.00;100211.59;5994166;29;20891;-90
2021/12/30 07:59:20;;;;;;;25.42;11.20;;;;;;;9.68;100.00;100211.59;6010136;29;20417;-90
2021/12/30 08:02:23;;;;;;;18.45;9.50;;;;;;;9.72;100.00;100227.69;5993124;29;20118;-90
2021/12/30 08:05:27;;;;;;;18.98;10.52;;;;;;;9.90;100.00;100239.13;5998129;29;20047;-90
2021/12/30 08:08:29;;;;;;;17.55;9.00;;;;;;;9.89;100.00;100224.56;5994410;29;20053;-90
2021/12/30 08:11:31;;;;;;;20.55;10.00;;;;;;;9.93;100.00;100223.34;5993330;29;20062;-90
2021/12/30 08:14:33;;;;;;;16.90;8.80;;;;;;;9.92;100.00;100219.16;5987161;29;20416;-90
2021/12/30 08:17:36;;;;;;;13.43;8.18;;;;;;;9.98;100.00;100223.81;5994198;29;20389;-90
2021/12/30 08:20:38;;;;;;;15.10;7.97;;;;;;;10.12;100.00;100213.16;5998998;29;20069;-90
2021/12/30 08:23:39;;;;;;;14.40;7.38;;;;;;;10.19;100.00;100218.66;5992064;29;20073;-90
2021/12/30 08:26:42;;;;;;;14.25;6.95;;;;;;;10.32;100.00;100221.91;5993466;29;20045;-90
2021/12/30 08:29:50;;;;;;;12.25;7.53;;;;;;;10.37;100.00;100228.47;5985344;29;20046;-90
2021/12/30 08:32:52;;;;;;;12.60;7.07;;;;;;;10.38;100.00;100228.31;5981946;29;20141;-90
2021/12/30 08:35:54;;;;;;;10.73;6.95;;;;;;;10.46;100.00;100225.94;6004746;29;20077;-90
2021/12/30 08:38:58;;;;;;;13.88;6.72;;;;;;;10.51;100.00;100223.78;6003866;29;20041;-90
2021/12/30 08:42:00;;;;;;;12.30;6.50;;;;;;;10.50;100.00;100219.53;6001964;29;20054;-90
2021/12/30 08:45:03;;;;;;;9.70;6.57;;;;;;;10.68;100.00;100218.94;5999570;29;20513;-90
2021/12/30 08:48:05;;;;;;;12.15;6.00;;;;;;;10.65;100.00;100235.56;5991901;29;20133;-90
2021/12/30 08:51:08;;;;;;;9.23;5.85;;;;;;;10.72;100.00;100239.28;6002318;29;20496;-90
2021/12/30 08:54:10;;;;;;;8.73;5.95;;;;;;;10.86;100.00;100242.47;5998767;29;20054;-90
2021/12/30 08:57:12;;;;;;;9.00;5.20;;;;;;;10.98;100.00;100251.78;5998344;29;20061;-90
2021/12/30 09:00:19;;;;;;;7.68;5.18;;;;;;;11.08;100.00;100242.28;5994862;29;20110;-90
2021/12/30 09:03:21;;;;;;;8.70;5.88;;;;;;;11.20;100.00;100232.63;5993559;29;20369;-90
2021/12/30 09:06:24;;;;;;;8.27;5.47;;;;;;;11.23;100.00;100245.34;6004763;29;20811;-89
2021/12/30 09:09:27;;;;;;;8.50;5.28;;;;;;;11.19;100.00;100242.16;6005586;29;20050;-90
2021/12/30 09:12:29;;;;;;;8.63;5.18;;;;;;;11.12;100.00;100248.00;6002265;29;20137;-89
2021/12/30 09:19:33;;;;;;;7.28;4.70;;;;;;;11.05;100.00;100242.53;6273928;23;20062;-95
2021/12/30 09:22:37;;;;;;;8.20;4.97;;;;;;;10.99;100.00;100250.84;6077141;23;20053;-95
2021/12/30 09:25:47;;;;;;;6.18;3.88;;;;;;;10.95;100.00;100239.91;6916824;23;20054;-96
2021/12/30 09:36:46;;;;;;;5.60;3.78;;;;;;;10.95;100.00;100250.25;6156269;23;20998;-95
2021/12/30 09:39:48;;;;;;;6.25;3.65;;;;;;;10.93;100.00;100241.81;6021335;29;20069;-95
2021/12/30 09:49:45;;;;;;;4.68;3.33;;;;;;;11.03;100.00;100225.47;6630963;23;20050;-96
2021/12/30 10:00:55;;;;;;;3.03;2.35;;;;;;;11.23;100.00;100242.75;6070483;23;20272;-95
2021/12/30 10:11:24;;;;;;;2.80;2.10;;;;;;;11.33;100.00;100238.41;6802818;23;20038;-94
2021/12/30 10:21:52;;;;;;;4.07;1.60;;;;;;;11.40;100.00;100231.75;6103535;23;20062;-94
2021/12/30 10:24:54;;;;;;;2.42;1.35;;;;;;;11.43;100.00;100226.28;7195471;23;20020;-93
2021/12/30 10:28:20;;;;;;;1.30;1.00;;;;;;;11.44;100.00;100219.31;6850742;23;20026;-93
2021/12/30 10:31:30;;;;;;;2.72;1.20;;;;;;;11.41;100.00;100223.00;6015680;29;20046;-93
2021/12/30 10:34:33;;;;;;;1.05;0.90;;;;;;;11.36;100.00;100225.16;6003812;29;20079;-93
2021/12/30 10:37:38;;;;;;;0.90;0.80;;;;;;;11.35;100.00;100235.66;6745361;23;20061;-94
2021/12/30 11:00:27;;;;;;;;;;;;;;;11.64;100.00;100220.16;6886875;23;20073;-93
2021/12/30 11:04:00;;;;;;;1.52;1.30;;;;;;;11.60;100.00;100213.59;6409693;23;20000;-94
2021/12/30 11:07:06;;;;;;;1.88;1.38;;;;;;;11.74;100.00;100228.75;6425791;23;20095;31
2021/12/30 11:10:14;;;;;;;3.70;2.05;;;;;;;11.79;100.00;100226.56;5137560;23;20224;-93
2021/12/30 11:13:17;;;;;;;2.15;1.83;;;;;;;11.80;100.00;100238.59;6007333;29;20062;-92
2021/12/30 11:16:21;;;;;;;2.50;1.80;;;;;;;11.85;100.00;100220.84;5982811;29;20107;-92
2021/12/30 11:19:26;;;;;;;1.90;1.70;;;;;;;11.88;100.00;100216.38;5967147;29;20085;-93
2021/12/30 11:22:30;;;;;;;2.75;2.13;;;;;;;12.03;100.00;100230.56;5978131;29;20070;-92
2021/12/30 11:25:33;;;;;;;2.60;1.95;;;;;;;12.12;100.00;100226.31;5972517;29;20051;-92
2021/12/30 11:28:35;;;;;;;2.50;2.30;;;;;;;12.22;100.00;100253.06;5969975;29;20477;-92
2021/12/30 11:31:38;;;;;;;3.88;2.33;;;;;;;12.24;100.00;100239.00;5972878;29;20050;-92
2021/12/30 11:34:40;;;;;;;3.13;2.35;;;;;;;12.33;100.00;100234.75;5968472;29;20409;-91
2021/12/30 11:37:42;;;;;;;3.75;2.38;;;;;;;12.39;100.00;100251.53;5972202;29;20058;-90
2021/12/30 11:40:46;;;;;;;3.33;2.28;;;;;;;12.38;100.00;100250.72;5965486;29;20054;-91
2021/12/30 11:43:49;;;;;;;2.90;2.40;;;;;;;12.42;100.00;100240.88;5965425;29;20108;-91
2021/12/30 11:46:51;;;;;;;3.03;2.72;;;;;;;12.39;100.00;100246.34;5964571;29;20779;-91
2021/12/30 11:50:28;;;;;;;3.92;3.00;;;;;;;12.37;100.00;100246.50;5966522;29;20129;-89
2021/12/30 11:53:30;;;;;;;5.20;3.15;;;;;;;12.40;100.00;100260.97;5956692;29;20408;-90
2021/12/30 11:56:32;;;;;;;4.13;3.13;;;;;;;12.46;100.00;100253.44;5962079;29;20066;-90
2021/12/30 11:59:39;;;;;;;4.97;3.22;;;;;;;12.45;100.00;100244.03;5960535;29;20105;-90
2021/12/30 12:02:41;;;;;;;5.43;4.13;;;;;;;12.34;100.00;100258.94;5959569;29;20051;-91
2021/12/30 12:05:44;;;;;;;5.32;3.45;;;;;;;12.29;100.00;100241.16;5960470;29;20046;-93
2021/12/30 12:08:46;;;;;;;5.53;3.78;;;;;;;12.24;100.00;100233.00;5981255;29;20038;-91
2021/12/30 12:11:58;;;;;;;5.72;4.15;;;;;;;12.26;100.00;100242.28;5975738;29;20404;-92
2021/12/30 12:15:04;;;;;;;5.80;4.55;;;;;;;12.26;100.00;100226.69;5988666;29;20490;-92
2021/12/30 12:18:13;;;;;;;7.18;4.40;;;;;;;12.22;100.00;100229.72;5969029;29;20422;-93
2021/12/30 12:21:15;;;;;;;5.88;4.32;;;;;;;12.21;100.00;100230.69;5989272;29;20046;-93
2021/12/30 12:24:28;;;;;;;8.30;4.43;;;;;;;12.20;100.00;100229.06;5976598;29;20509;-91
2021/12/30 12:27:33;;;;;;;6.30;4.50;;;;;;;12.22;100.00;100224.50;5979684;29;20441;-92
2021/12/30 12:30:38;;;;;;;6.63;5.07;;;;;;;12.27;100.00;100225.75;5983962;29;20058;-93
2021/12/30 12:33:42;;;;;;;9.20;5.15;;;;;;;12.32;100.00;100238.28;5978787;29;20038;-92
2021/12/30 12:36:46;;;;;;;7.78;4.95;;;;;;;12.37;100.00;100232.69;5977360;29;20058;-93
2021/12/30 12:39:56;;;;;;;8.52;5.00;;;;;;;12.36;100.00;100238.84;5986305;29;20317;-93
2021/12/30 12:43:02;;;;;;;7.55;5.10;;;;;;;12.32;100.00;100240.88;5967871;29;20051;-92
2021/12/30 12:46:04;;;;;;;9.38;5.40;;;;;;;12.37;100.00;100232.69;5981002;29;20125;-92
2021/12/30 12:49:07;;;;;;;7.82;5.38;;;;;;;12.44;100.00;100249.34;5962981;29;20043;-91
2021/12/30 12:52:09;;;;;;;8.00;4.88;;;;;;;12.46;100.00;100247.44;5969129;29;20076;-92
2021/12/30 12:55:15;;;;;;;10.82;5.18;;;;;;;12.47;100.00;100241.25;5955160;29;20039;-91
2021/12/30 12:58:19;;;;;;;7.53;4.90;;;;;;;12.49;100.00;100247.13;5964338;29;20054;-90
2021/12/30 13:01:23;;;;;;;7.70;5.10;;;;;;;12.48;100.00;100256.72;5942781;29;20433;-90
2021/12/30 13:04:26;;;;;;;7.78;4.88;;;;;;;12.50;100.00;100265.19;5960338;29;20054;-90
2021/12/30 13:07:33;;;;;;;7.05;4.60;;;;;;;12.52;100.00;100253.81;5964249;29;20043;-89
2021/12/30 13:10:40;;;;;;;8.93;5.13;;;;;;;12.52;100.00;100266.81;5958009;29;20055;-89
2021/12/30 13:13:43;;;;;;;9.15;4.95;;;;;;;12.58;100.00;100271.47;5952138;29;20477;-90
2021/12/30 13:16:48;;;;;;;5.88;4.28;;;;;;;12.57;100.00;100267.22;5963394;29;20114;-89
2021/12/30 13:19:50;;;;;;;5.55;4.47;;;;;;;12.56;100.00;100270.78;5961101;29;20070;-89
2021/12/30 13:22:57;;;;;;;6.35;4.43;;;;;;;12.54;100.00;100276.09;5966443;29;20051;-89
2021/12/30 13:26:09;;;;;;;4.65;4.03;;;;;;;12.52;100.00;100277.19;5964715;29;20528;-89
2021/12/30 13:29:11;;;;;;;8.25;4.13;;;;;;;12.53;100.00;100274.47;5944567;29;20050;-89
2021/12/30 13:32:18;;;;;;;5.57;4.13;;;;;;;12.56;100.00;100287.16;5954638;29;20159;-89
2021/12/30 13:35:37;;;;;;;10.57;4.03;;;;;;;12.63;100.00;100300.41;5964901;29;20054;-89
2021/12/30 13:38:40;;;;;;;;;;;;;;;12.64;100.00;100295.06;5974672;29;20519;-89
2021/12/30 13:41:59;;;;;;;6.32;3.55;;;;;;;12.68;100.00;100295.63;5973296;29;20875;-89
2021/12/30 13:45:04;;;;;;;4.32;3.28;;;;;;;12.71;100.00;100293.53;5962597;29;20050;-89
2021/12/30 13:48:07;;;;;;;5.20;3.30;;;;;;;12.68;100.00;100288.66;5966109;29;20050;-88
2021/12/30 13:51:25;;;;;;;5.20;3.63;;;;;;;12.66;100.00;100295.75;5971505;29;20058;-88
2021/12/30 13:54:27;;;;;;;5.55;4.13;;;;;;;12.64;100.00;100299.44;5967921;29;20069;-89
2021/12/30 13:57:29;;;;;;;5.32;3.90;;;;;;;12.67;100.00;100307.78;5976863;29;20050;-88
2021/12/30 14:00:53;;;;;;;5.88;3.55;;;;;;;12.62;100.00;100315.19;5968525;29;20061;-88
2021/12/30 14:04:05;;;;;;;5.90;3.13;;;;;;;12.62;100.00;100312.59;5953219;29;20050;-89
2021/12/30 14:07:07;;;;;;;5.57;3.63;;;;;;;12.67;100.00;100306.94;5956813;29;20049;-88
2021/12/30 14:10:13;;;;;;;6.68;3.50;;;;;;;12.64;100.00;100308.06;5952352;29;20049;-88
2021/12/30 14:13:17;;;;;;;6.63;3.42;;;;;;;12.61;100.00;100323.09;5951759;29;20047;-88
2021/12/30 14:16:22;;;;;;;5.80;3.80;;;;;;;12.62;100.00;100329.94;5946013;29;20051;-88
2021/12/30 14:19:40;;;;;;;5.75;3.42;;;;;;;12.61;100.00;100330.91;5958500;29;20537;-89
2021/12/30 14:22:44;;;;;;;6.40;3.50;;;;;;;12.54;100.00;100335.00;5954762;29;20039;-88
2021/12/30 14:25:47;;;;;;;6.82;3.40;;;;;;;12.53;100.00;100334.19;5944953;29;20477;-88
2021/12/30 14:29:09;;;;;;;4.30;3.30;;;;;;;12.50;100.00;100337.06;5953374;29;20055;-88
2021/12/30 14:32:15;;;;;;;4.78;3.10;;;;;;;12.49;100.00;100340.59;5955677;29;20039;-88
2021/12/30 14:35:17;;;;;;;4.85;3.22;;;;;;;12.46;100.00;100335.69;5950878;29;20134;-88
2021/12/30 14:38:34;;;;;;;5.82;3.25;;;;;;;12.44;100.00;100348.00;5953449;29;20051;-88
2021/12/30 14:41:37;;;;;;;6.30;3.42;;;;;;;12.38;100.00;100354.56;5949599;29;20066;-88
2021/12/30 14:44:53;;;;;;;7.00;3.33;;;;;;;12.35;100.00;100347.06;5947057;29;20078;-88
2021/12/30 14:48:05;;;;;;;8.88;3.50;;;;;;;12.29;100.00;100352.78;5949941;29;20136;-88
2021/12/30 14:51:32;;;;;;;6.15;3.58;;;;;;;12.29;100.00;100361.38;5964365;29;20058;-88
2021/12/30 14:54:34;;;;;;;6.90;3.55;;;;;;;12.24;100.00;100366.16;5957444;29;20377;-89
2021/12/30 14:57:36;;;;;;;6.85;3.70;;;;;;;12.17;100.00;100359.84;5952521;29;20050;-88
2021/12/30 15:00:44;;;;;;;4.55;3.28;;;;;;;12.15;100.00;100372.19;5958822;29;20493;-88
2021/12/30 15:03:47;;;;;;;6.18;4.20;;;;;;;12.08;100.00;100365.88;5962193;29;20487;-88
2021/12/30 15:07:03;;;;;;;7.40;3.63;;;;;;;12.05;100.00;100371.34;5960435;29;20080;-88